首页
METAR-TAF:

METAR-TAF

机场 :

谢列梅捷沃国际机场

莫斯科舍列梅季耶夫, 俄罗斯

纬度: 55-58N, 经度: 037-25E, 海拔: 190米

当前天气观测

该预报发布于19分钟前的02:00 UTC
风速6节,风向北转西北
温度 15°C
湿度 88%
气压 1012 hPa
能见度10公里或以上
1500米以下无云,无积雨云

METAR: UUEE 230200Z 33003MPS CAVOK 15/13 Q1012 R24L/CLRD62 NOSIG

时间: 05:19 (02:19 UTC)

预报

该预报发布于3小时和19分钟前的23:00 UTC
预报有效从23日的 00点(UTC)到 23日的 24点(UTC)
风速6节,风向北转东北
能见度10公里或以上
1500米以下无云,无积雨云
成为
从 23日的 07点(UTC)到 23日的 11点(UTC)
风速10节,风向

TAF: UUEE 222300Z 2300/2324 02003MPS CAVOK TX30/2312Z TN16/2303Z BECMG 2307/2311 17005MPS

超过4000个机场的气象观测和天气预报(METAR&TAF报告)。

可查询的气象台以黄色和红色小点在地图上表示。

将鼠标移到小点上方,可查看气象台名称。

然后点击查看天气观测和预报。

如需切换地图:点击带黑十字的绿色按钮放大地图;点击带横线的绿色按钮缩小地图;或者点击绿色箭头查看邻近地区的地图。


METAR-TAF: